sensor_id;sensor_type;location;lat;lon;timestamp;P1;durP1;ratioP1;P2;durP2;ratioP2
16393;SDS011;8306;51.128;4.476;2022-09-09T00:02:20;3.90;;;2.57;;
16393;SDS011;8306;51.128;4.476;2022-09-09T00:04:49;3.73;;;2.53;;
16393;SDS011;8306;51.128;4.476;2022-09-09T00:07:25;3.03;;;2.73;;
16393;SDS011;8306;51.128;4.476;2022-09-09T00:10:03;2.83;;;2.13;;
16393;SDS011;8306;51.128;4.476;2022-09-09T00:12:41;2.80;;;2.60;;
16393;SDS011;8306;51.128;4.476;2022-09-09T00:15:14;3.37;;;2.97;;
16393;SDS011;8306;51.128;4.476;2022-09-09T00:17:43;2.63;;;2.43;;
16393;SDS011;8306;51.128;4.476;2022-09-09T00:20:13;3.30;;;2.87;;
16393;SDS011;8306;51.128;4.476;2022-09-09T00:22:39;4.67;;;2.70;;
16393;SDS011;8306;51.128;4.476;2022-09-09T00:25:11;3.50;;;2.60;;
16393;SDS011;8306;51.128;4.476;2022-09-09T00:27:49;5.23;;;3.80;;
16393;SDS011;8306;51.128;4.476;2022-09-09T00:30:19;5.50;;;3.20;;
16393;SDS011;8306;51.128;4.476;2022-09-09T00:32:42;3.87;;;3.47;;
16393;SDS011;8306;51.128;4.476;2022-09-09T00:35:14;3.77;;;3.40;;
16393;SDS011;8306;51.128;4.476;2022-09-09T00:37:51;3.10;;;2.37;;
16393;SDS011;8306;51.128;4.476;2022-09-09T00:40:18;2.60;;;2.30;;
16393;SDS011;8306;51.128;4.476;2022-09-09T00:42:49;3.27;;;2.80;;
16393;SDS011;8306;51.128;4.476;2022-09-09T00:47:53;2.20;;;1.60;;
16393;SDS011;8306;51.128;4.476;2022-09-09T00:50:31;2.03;;;1.67;;
16393;SDS011;8306;51.128;4.476;2022-09-09T00:53:17;3.30;;;2.13;;
16393;SDS011;8306;51.128;4.476;2022-09-09T00:56:04;3.37;;;2.10;;
16393;SDS011;8306;51.128;4.476;2022-09-09T00:58:36;2.80;;;1.90;;
16393;SDS011;8306;51.128;4.476;2022-09-09T01:01:07;3.03;;;1.97;;
16393;SDS011;8306;51.128;4.476;2022-09-09T01:03:47;3.13;;;1.97;;
16393;SDS011;8306;51.128;4.476;2022-09-09T01:06:16;2.83;;;2.00;;
16393;SDS011;8306;51.128;4.476;2022-09-09T01:16:40;3.47;;;2.13;;
16393;SDS011;8306;51.128;4.476;2022-09-09T01:19:07;3.70;;;2.60;;
16393;SDS011;8306;51.128;4.476;2022-09-09T01:21:41;3.73;;;2.33;;
16393;SDS011;8306;51.128;4.476;2022-09-09T01:24:13;3.93;;;2.20;;
16393;SDS011;8306;51.128;4.476;2022-09-09T01:26:35;3.57;;;2.37;;
16393;SDS011;8306;51.128;4.476;2022-09-09T01:29:01;3.40;;;2.17;;
16393;SDS011;8306;51.128;4.476;2022-09-09T01:31:31;2.00;;;1.90;;
16393;SDS011;8306;51.128;4.476;2022-09-09T01:34:13;2.17;;;1.80;;
16393;SDS011;8306;51.128;4.476;2022-09-09T01:36:41;3.13;;;1.70;;
16393;SDS011;8306;51.128;4.476;2022-09-09T01:39:05;2.00;;;1.83;;
16393;SDS011;8306;51.128;4.476;2022-09-09T01:41:32;2.20;;;1.70;;
16393;SDS011;8306;51.128;4.476;2022-09-09T01:43:58;2.23;;;1.83;;
16393;SDS011;8306;51.128;4.476;2022-09-09T01:46:24;5.27;;;2.37;;
16393;SDS011;8306;51.128;4.476;2022-09-09T01:48:51;2.83;;;2.10;;
16393;SDS011;8306;51.128;4.476;2022-09-09T01:51:17;3.30;;;2.10;;
16393;SDS011;8306;51.128;4.476;2022-09-09T01:53:44;3.17;;;2.30;;
16393;SDS011;8306;51.128;4.476;2022-09-09T01:56:17;3.00;;;2.40;;
16393;SDS011;8306;51.128;4.476;2022-09-09T02:01:27;3.27;;;2.30;;
16393;SDS011;8306;51.128;4.476;2022-09-09T02:03:54;2.73;;;2.00;;
16393;SDS011;8306;51.128;4.476;2022-09-09T02:06:53;2.80;;;1.73;;
16393;SDS011;8306;51.128;4.476;2022-09-09T02:09:01;3.00;;;1.60;;
16393;SDS011;8306;51.128;4.476;2022-09-09T02:11:27;2.70;;;1.53;;
16393;SDS011;8306;51.128;4.476;2022-09-09T02:14:04;3.00;;;1.50;;
16393;SDS011;8306;51.128;4.476;2022-09-09T02:16:37;1.57;;;1.40;;
16393;SDS011;8306;51.128;4.476;2022-09-09T02:21:52;2.87;;;1.50;;
16393;SDS011;8306;51.128;4.476;2022-09-09T02:24:18;2.13;;;1.20;;
16393;SDS011;8306;51.128;4.476;2022-09-09T02:26:45;3.33;;;1.87;;
16393;SDS011;8306;51.128;4.476;2022-09-09T02:29:13;1.77;;;1.33;;
16393;SDS011;8306;51.128;4.476;2022-09-09T02:31:38;3.00;;;1.80;;
16393;SDS011;8306;51.128;4.476;2022-09-09T02:34:04;2.77;;;1.60;;
16393;SDS011;8306;51.128;4.476;2022-09-09T02:36:31;2.90;;;1.87;;
16393;SDS011;8306;51.128;4.476;2022-09-09T02:38:57;4.07;;;1.90;;
16393;SDS011;8306;51.128;4.476;2022-09-09T02:41:24;2.03;;;1.87;;
16393;SDS011;8306;51.128;4.476;2022-09-09T02:43:50;3.10;;;1.83;;
16393;SDS011;8306;51.128;4.476;2022-09-09T02:57:08;4.67;;;4.17;;
16393;SDS011;8306;51.128;4.476;2022-09-09T02:59:28;5.63;;;3.00;;
16393;SDS011;8306;51.128;4.476;2022-09-09T03:01:54;5.60;;;3.03;;
16393;SDS011;8306;51.128;4.476;2022-09-09T03:04:21;5.57;;;2.77;;
16393;SDS011;8306;51.128;4.476;2022-09-09T03:06:47;5.57;;;2.33;;
16393;SDS011;8306;51.128;4.476;2022-09-09T03:09:14;5.13;;;2.40;;
16393;SDS011;8306;51.128;4.476;2022-09-09T03:11:40;5.23;;;2.40;;
16393;SDS011;8306;51.128;4.476;2022-09-09T03:14:07;7.30;;;2.40;;
16393;SDS011;8306;51.128;4.476;2022-09-09T03:16:33;5.37;;;2.33;;
16393;SDS011;8306;51.128;4.476;2022-09-09T03:19:00;5.83;;;2.70;;
16393;SDS011;8306;51.128;4.476;2022-09-09T03:21:26;4.07;;;2.50;;
16393;SDS011;8306;51.128;4.476;2022-09-09T03:23:53;4.27;;;2.60;;
16393;SDS011;8306;51.128;4.476;2022-09-09T03:26:19;4.37;;;3.00;;
16393;SDS011;8306;51.128;4.476;2022-09-09T03:28:46;5.60;;;2.80;;
16393;SDS011;8306;51.128;4.476;2022-09-09T03:31:12;7.40;;;3.20;;
16393;SDS011;8306;51.128;4.476;2022-09-09T03:33:39;7.27;;;2.90;;
16393;SDS011;8306;51.128;4.476;2022-09-09T03:36:05;6.00;;;2.43;;
16393;SDS011;8306;51.128;4.476;2022-09-09T03:38:32;3.30;;;1.93;;
16393;SDS011;8306;51.128;4.476;2022-09-09T03:40:58;6.37;;;2.67;;
16393;SDS011;8306;51.128;4.476;2022-09-09T03:43:25;6.67;;;2.10;;
16393;SDS011;8306;51.128;4.476;2022-09-09T03:45:51;5.17;;;2.27;;
16393;SDS011;8306;51.128;4.476;2022-09-09T03:48:18;4.33;;;2.20;;
16393;SDS011;8306;51.128;4.476;2022-09-09T03:50:47;6.53;;;2.50;;
16393;SDS011;8306;51.128;4.476;2022-09-09T03:53:13;5.30;;;2.20;;
16393;SDS011;8306;51.128;4.476;2022-09-09T03:55:43;5.00;;;2.10;;
16393;SDS011;8306;51.128;4.476;2022-09-09T03:58:06;5.97;;;2.27;;
16393;SDS011;8306;51.128;4.476;2022-09-09T04:00:33;6.37;;;2.57;;
16393;SDS011;8306;51.128;4.476;2022-09-09T04:02:59;6.23;;;2.07;;
16393;SDS011;8306;51.128;4.476;2022-09-09T04:05:26;5.80;;;2.50;;
16393;SDS011;8306;51.128;4.476;2022-09-09T04:07:52;4.87;;;1.80;;
16393;SDS011;8306;51.128;4.476;2022-09-09T04:10:18;9.80;;;2.20;;
16393;SDS011;8306;51.128;4.476;2022-09-09T04:12:45;7.57;;;2.77;;
16393;SDS011;8306;51.128;4.476;2022-09-09T04:15:11;6.73;;;2.43;;
16393;SDS011;8306;51.128;4.476;2022-09-09T04:17:38;5.43;;;2.23;;
16393;SDS011;8306;51.128;4.476;2022-09-09T04:20:04;4.70;;;2.03;;
16393;SDS011;8306;51.128;4.476;2022-09-09T04:22:31;4.87;;;1.93;;
16393;SDS011;8306;51.128;4.476;2022-09-09T04:24:57;7.20;;;2.80;;
16393;SDS011;8306;51.128;4.476;2022-09-09T04:27:24;5.83;;;2.47;;
16393;SDS011;8306;51.128;4.476;2022-09-09T04:29:51;4.00;;;2.07;;
16393;SDS011;8306;51.128;4.476;2022-09-09T04:32:17;6.77;;;2.30;;
16393;SDS011;8306;51.128;4.476;2022-09-09T04:34:44;6.80;;;2.10;;
16393;SDS011;8306;51.128;4.476;2022-09-09T04:37:10;6.93;;;2.60;;
16393;SDS011;8306;51.128;4.476;2022-09-09T04:39:37;3.93;;;2.20;;
16393;SDS011;8306;51.128;4.476;2022-09-09T04:42:03;6.87;;;2.00;;
16393;SDS011;8306;51.128;4.476;2022-09-09T04:44:30;7.00;;;2.10;;
16393;SDS011;8306;51.128;4.476;2022-09-09T04:46:56;6.57;;;2.20;;
16393;SDS011;8306;51.128;4.476;2022-09-09T04:49:23;3.93;;;2.03;;
16393;SDS011;8306;51.128;4.476;2022-09-09T04:51:49;4.07;;;1.77;;
16393;SDS011;8306;51.128;4.476;2022-09-09T04:54:16;5.33;;;2.40;;
16393;SDS011;8306;51.128;4.476;2022-09-09T04:56:42;7.20;;;2.43;;
16393;SDS011;8306;51.128;4.476;2022-09-09T04:59:09;5.93;;;2.60;;
16393;SDS011;8306;51.128;4.476;2022-09-09T05:01:35;9.03;;;2.80;;
16393;SDS011;8306;51.128;4.476;2022-09-09T05:04:02;6.03;;;2.10;;
16393;SDS011;8306;51.128;4.476;2022-09-09T05:06:28;4.10;;;2.13;;
16393;SDS011;8306;51.128;4.476;2022-09-09T05:08:55;5.93;;;2.57;;
16393;SDS011;8306;51.128;4.476;2022-09-09T05:11:22;4.73;;;2.30;;
16393;SDS011;8306;51.128;4.476;2022-09-09T05:13:48;9.23;;;2.77;;
16393;SDS011;8306;51.128;4.476;2022-09-09T05:16:14;4.60;;;2.47;;
16393;SDS011;8306;51.128;4.476;2022-09-09T05:18:41;12.23;;;2.93;;
16393;SDS011;8306;51.128;4.476;2022-09-09T05:21:07;5.10;;;2.50;;
16393;SDS011;8306;51.128;4.476;2022-09-09T05:23:34;7.10;;;2.27;;
16393;SDS011;8306;51.128;4.476;2022-09-09T05:26:00;6.73;;;2.83;;
16393;SDS011;8306;51.128;4.476;2022-09-09T05:28:27;6.80;;;2.37;;
16393;SDS011;8306;51.128;4.476;2022-09-09T05:30:59;3.97;;;2.33;;
16393;SDS011;8306;51.128;4.476;2022-09-09T05:33:26;6.97;;;2.37;;
16393;SDS011;8306;51.128;4.476;2022-09-09T05:36:05;6.07;;;2.40;;
16393;SDS011;8306;51.128;4.476;2022-09-09T05:38:31;5.53;;;2.50;;
16393;SDS011;8306;51.128;4.476;2022-09-09T05:40:57;6.07;;;2.63;;
16393;SDS011;8306;51.128;4.476;2022-09-09T05:43:23;5.93;;;2.57;;
16393;SDS011;8306;51.128;4.476;2022-09-09T05:46:06;8.23;;;3.07;;
16393;SDS011;8306;51.128;4.476;2022-09-09T05:48:32;7.23;;;3.23;;
16393;SDS011;8306;51.128;4.476;2022-09-09T05:50:59;10.57;;;2.97;;
16393;SDS011;8306;51.128;4.476;2022-09-09T05:53:25;9.10;;;2.80;;
16393;SDS011;8306;51.128;4.476;2022-09-09T05:55:57;7.00;;;2.63;;
16393;SDS011;8306;51.128;4.476;2022-09-09T05:58:17;5.70;;;2.63;;
16393;SDS011;8306;51.128;4.476;2022-09-09T06:00:44;5.80;;;2.53;;
16393;SDS011;8306;51.128;4.476;2022-09-09T06:03:11;8.03;;;2.73;;
16393;SDS011;8306;51.128;4.476;2022-09-09T06:05:37;5.73;;;2.03;;
16393;SDS011;8306;51.128;4.476;2022-09-09T06:08:03;7.00;;;2.87;;
16393;SDS011;8306;51.128;4.476;2022-09-09T06:10:30;6.57;;;2.50;;
16393;SDS011;8306;51.128;4.476;2022-09-09T06:12:56;4.73;;;2.67;;
16393;SDS011;8306;51.128;4.476;2022-09-09T06:15:23;5.23;;;2.40;;
16393;SDS011;8306;51.128;4.476;2022-09-09T06:17:53;6.17;;;2.40;;
16393;SDS011;8306;51.128;4.476;2022-09-09T06:20:16;5.40;;;2.37;;
16393;SDS011;8306;51.128;4.476;2022-09-09T06:22:42;7.07;;;2.87;;
16393;SDS011;8306;51.128;4.476;2022-09-09T06:25:09;4.93;;;2.30;;
16393;SDS011;8306;51.128;4.476;2022-09-09T06:27:35;6.43;;;2.67;;
16393;SDS011;8306;51.128;4.476;2022-09-09T06:30:02;7.73;;;2.10;;
16393;SDS011;8306;51.128;4.476;2022-09-09T06:32:28;6.10;;;2.13;;
16393;SDS011;8306;51.128;4.476;2022-09-09T06:34:54;5.80;;;2.07;;
16393;SDS011;8306;51.128;4.476;2022-09-09T06:37:21;4.60;;;2.10;;
16393;SDS011;8306;51.128;4.476;2022-09-09T06:39:47;4.73;;;2.23;;
16393;SDS011;8306;51.128;4.476;2022-09-09T06:42:14;5.37;;;1.90;;
16393;SDS011;8306;51.128;4.476;2022-09-09T06:44:40;5.27;;;2.13;;
16393;SDS011;8306;51.128;4.476;2022-09-09T06:47:07;5.77;;;1.93;;
16393;SDS011;8306;51.128;4.476;2022-09-09T06:49:33;6.63;;;1.67;;
16393;SDS011;8306;51.128;4.476;2022-09-09T06:52:00;4.53;;;1.70;;
16393;SDS011;8306;51.128;4.476;2022-09-09T06:54:26;3.17;;;1.60;;
16393;SDS011;8306;51.128;4.476;2022-09-09T06:56:53;4.57;;;2.07;;
16393;SDS011;8306;51.128;4.476;2022-09-09T06:59:19;4.87;;;1.90;;
16393;SDS011;8306;51.128;4.476;2022-09-09T07:01:46;3.37;;;1.63;;
16393;SDS011;8306;51.128;4.476;2022-09-09T07:04:12;5.57;;;1.90;;
16393;SDS011;8306;51.128;4.476;2022-09-09T07:06:42;5.83;;;1.97;;
16393;SDS011;8306;51.128;4.476;2022-09-09T07:09:12;5.17;;;2.10;;
16393;SDS011;8306;51.128;4.476;2022-09-09T07:11:39;6.13;;;2.23;;
16393;SDS011;8306;51.128;4.476;2022-09-09T07:14:07;5.97;;;2.17;;
16393;SDS011;8306;51.128;4.476;2022-09-09T07:16:33;6.47;;;2.37;;
16393;SDS011;8306;51.128;4.476;2022-09-09T07:19:00;5.80;;;1.90;;
16393;SDS011;8306;51.128;4.476;2022-09-09T07:21:26;6.80;;;1.83;;
16393;SDS011;8306;51.128;4.476;2022-09-09T07:23:53;4.50;;;1.90;;
16393;SDS011;8306;51.128;4.476;2022-09-09T07:26:20;5.67;;;1.87;;
16393;SDS011;8306;51.128;4.476;2022-09-09T07:28:46;6.00;;;1.77;;
16393;SDS011;8306;51.128;4.476;2022-09-09T07:31:13;7.33;;;2.03;;
16393;SDS011;8306;51.128;4.476;2022-09-09T07:33:38;5.77;;;1.63;;
16393;SDS011;8306;51.128;4.476;2022-09-09T07:36:06;5.50;;;1.77;;
16393;SDS011;8306;51.128;4.476;2022-09-09T07:38:31;5.17;;;1.80;;
16393;SDS011;8306;51.128;4.476;2022-09-09T07:41:05;5.47;;;1.90;;
16393;SDS011;8306;51.128;4.476;2022-09-09T07:43:30;4.47;;;1.77;;
16393;SDS011;8306;51.128;4.476;2022-09-09T07:45:57;5.67;;;1.93;;
16393;SDS011;8306;51.128;4.476;2022-09-09T07:48:23;5.30;;;1.90;;
16393;SDS011;8306;51.128;4.476;2022-09-09T07:50:50;4.63;;;2.00;;
16393;SDS011;8306;51.128;4.476;2022-09-09T07:53:16;4.13;;;1.37;;
16393;SDS011;8306;51.128;4.476;2022-09-09T07:55:43;6.03;;;2.40;;
16393;SDS011;8306;51.128;4.476;2022-09-09T07:58:09;5.30;;;1.80;;
16393;SDS011;8306;51.128;4.476;2022-09-09T08:00:36;3.33;;;1.60;;
16393;SDS011;8306;51.128;4.476;2022-09-09T08:03:02;4.00;;;1.87;;
16393;SDS011;8306;51.128;4.476;2022-09-09T08:05:29;4.57;;;1.57;;
16393;SDS011;8306;51.128;4.476;2022-09-09T08:07:55;4.87;;;1.60;;
16393;SDS011;8306;51.128;4.476;2022-09-09T08:10:22;4.20;;;1.50;;
16393;SDS011;8306;51.128;4.476;2022-09-09T08:12:48;4.47;;;1.60;;
16393;SDS011;8306;51.128;4.476;2022-09-09T08:15:15;3.73;;;1.40;;
16393;SDS011;8306;51.128;4.476;2022-09-09T08:17:41;4.90;;;1.90;;
16393;SDS011;8306;51.128;4.476;2022-09-09T08:20:07;4.83;;;2.00;;
16393;SDS011;8306;51.128;4.476;2022-09-09T08:22:34;5.83;;;1.60;;
16393;SDS011;8306;51.128;4.476;2022-09-09T08:25:00;5.07;;;1.80;;
16393;SDS011;8306;51.128;4.476;2022-09-09T08:27:27;2.87;;;1.40;;
16393;SDS011;8306;51.128;4.476;2022-09-09T08:29:53;3.77;;;1.60;;
16393;SDS011;8306;51.128;4.476;2022-09-09T08:32:20;5.47;;;1.80;;
16393;SDS011;8306;51.128;4.476;2022-09-09T08:34:46;4.00;;;1.50;;
16393;SDS011;8306;51.128;4.476;2022-09-09T08:37:13;4.47;;;1.33;;
16393;SDS011;8306;51.128;4.476;2022-09-09T08:39:39;4.20;;;1.60;;
16393;SDS011;8306;51.128;4.476;2022-09-09T08:42:13;4.27;;;1.80;;
16393;SDS011;8306;51.128;4.476;2022-09-09T08:58:15;2.93;;;1.30;;
16393;SDS011;8306;51.128;4.476;2022-09-09T09:03:32;4.83;;;1.53;;
16393;SDS011;8306;51.128;4.476;2022-09-09T09:06:09;5.10;;;1.73;;
16393;SDS011;8306;51.128;4.476;2022-09-09T09:08:43;4.27;;;1.30;;
16393;SDS011;8306;51.128;4.476;2022-09-09T09:11:08;5.30;;;1.60;;
16393;SDS011;8306;51.128;4.476;2022-09-09T09:13:39;3.80;;;1.43;;
16393;SDS011;8306;51.128;4.476;2022-09-09T09:16:03;7.90;;;1.90;;
16393;SDS011;8306;51.128;4.476;2022-09-09T09:18:27;7.30;;;1.83;;
16393;SDS011;8306;51.128;4.476;2022-09-09T09:20:58;11.07;;;2.13;;
16393;SDS011;8306;51.128;4.476;2022-09-09T09:23:24;3.80;;;1.67;;
16393;SDS011;8306;51.128;4.476;2022-09-09T09:25:49;5.53;;;1.93;;
16393;SDS011;8306;51.128;4.476;2022-09-09T09:28:16;3.90;;;1.60;;
16393;SDS011;8306;51.128;4.476;2022-09-09T09:30:49;5.73;;;1.73;;
16393;SDS011;8306;51.128;4.476;2022-09-09T09:35:57;5.30;;;1.80;;
16393;SDS011;8306;51.128;4.476;2022-09-09T09:38:24;5.47;;;1.67;;
16393;SDS011;8306;51.128;4.476;2022-09-09T09:40:54;3.33;;;1.80;;
16393;SDS011;8306;51.128;4.476;2022-09-09T09:45:58;5.63;;;2.20;;
16393;SDS011;8306;51.128;4.476;2022-09-09T09:48:25;2.27;;;1.33;;
16393;SDS011;8306;51.128;4.476;2022-09-09T09:50:54;3.60;;;1.43;;
16393;SDS011;8306;51.128;4.476;2022-09-09T09:53:26;5.17;;;1.50;;
16393;SDS011;8306;51.128;4.476;2022-09-09T09:55:58;2.23;;;1.33;;
16393;SDS011;8306;51.128;4.476;2022-09-09T09:58:24;3.03;;;1.37;;
16393;SDS011;8306;51.128;4.476;2022-09-09T10:00:51;3.27;;;1.50;;
16393;SDS011;8306;51.128;4.476;2022-09-09T10:03:24;2.63;;;1.20;;
16393;SDS011;8306;51.128;4.476;2022-09-09T10:05:46;3.63;;;1.70;;
16393;SDS011;8306;51.128;4.476;2022-09-09T10:08:13;3.40;;;1.40;;
16393;SDS011;8306;51.128;4.476;2022-09-09T10:13:09;5.13;;;1.57;;
16393;SDS011;8306;51.128;4.476;2022-09-09T10:15:44;3.87;;;1.33;;
16393;SDS011;8306;51.128;4.476;2022-09-09T10:18:15;3.20;;;1.47;;
16393;SDS011;8306;51.128;4.476;2022-09-09T10:30:58;3.70;;;1.50;;
16393;SDS011;8306;51.128;4.476;2022-09-09T10:33:27;2.93;;;1.20;;
16393;SDS011;8306;51.128;4.476;2022-09-09T10:38:46;4.10;;;1.13;;
16393;SDS011;8306;51.128;4.476;2022-09-09T10:41:22;3.03;;;1.40;;
16393;SDS011;8306;51.128;4.476;2022-09-09T10:46:53;2.77;;;1.23;;
16393;SDS011;8306;51.128;4.476;2022-09-09T10:55:17;3.77;;;1.30;;
16393;SDS011;8306;51.128;4.476;2022-09-09T10:57:44;2.53;;;1.20;;
16393;SDS011;8306;51.128;4.476;2022-09-09T11:00:17;4.10;;;1.43;;
16393;SDS011;8306;51.128;4.476;2022-09-09T11:02:41;2.80;;;1.23;;
16393;SDS011;8306;51.128;4.476;2022-09-09T11:05:14;3.33;;;1.10;;
16393;SDS011;8306;51.128;4.476;2022-09-09T11:10:21;1.97;;;0.90;;
16393;SDS011;8306;51.128;4.476;2022-09-09T11:12:45;2.33;;;1.10;;
16393;SDS011;8306;51.128;4.476;2022-09-09T11:15:16;3.47;;;1.00;;
16393;SDS011;8306;51.128;4.476;2022-09-09T11:17:42;2.00;;;0.97;;
16393;SDS011;8306;51.128;4.476;2022-09-09T11:20:13;3.23;;;1.23;;
16393;SDS011;8306;51.128;4.476;2022-09-09T11:22:49;3.30;;;1.23;;
16393;SDS011;8306;51.128;4.476;2022-09-09T11:27:59;2.90;;;1.10;;
16393;SDS011;8306;51.128;4.476;2022-09-09T11:30:31;9.07;;;1.70;;
16393;SDS011;8306;51.128;4.476;2022-09-09T11:33:41;4.30;;;1.50;;
16393;SDS011;8306;51.128;4.476;2022-09-09T11:38:36;3.00;;;1.13;;
16393;SDS011;8306;51.128;4.476;2022-09-09T11:40:59;3.57;;;1.50;;
16393;SDS011;8306;51.128;4.476;2022-09-09T11:43:30;2.87;;;1.07;;
16393;SDS011;8306;51.128;4.476;2022-09-09T11:45:58;2.50;;;0.93;;
16393;SDS011;8306;51.128;4.476;2022-09-09T11:51:03;1.53;;;0.80;;
16393;SDS011;8306;51.128;4.476;2022-09-09T11:53:26;1.70;;;0.80;;
16393;SDS011;8306;51.128;4.476;2022-09-09T11:56:05;2.67;;;1.20;;
16393;SDS011;8306;51.128;4.476;2022-09-09T11:58:37;2.87;;;1.20;;
16393;SDS011;8306;51.128;4.476;2022-09-09T12:01:00;2.17;;;0.63;;
16393;SDS011;8306;51.128;4.476;2022-09-09T12:08:44;2.70;;;0.97;;
16393;SDS011;8306;51.128;4.476;2022-09-09T12:11:09;1.97;;;0.97;;
16393;SDS011;8306;51.128;4.476;2022-09-09T12:13:36;2.03;;;0.90;;
16393;SDS011;8306;51.128;4.476;2022-09-09T12:16:02;3.07;;;1.00;;
16393;SDS011;8306;51.128;4.476;2022-09-09T12:21:06;1.57;;;0.77;;
16393;SDS011;8306;51.128;4.476;2022-09-09T12:26:07;2.93;;;0.73;;
16393;SDS011;8306;51.128;4.476;2022-09-09T12:28:54;3.60;;;1.00;;
16393;SDS011;8306;51.128;4.476;2022-09-09T12:37:03;2.37;;;0.97;;
16393;SDS011;8306;51.128;4.476;2022-09-09T12:39:35;1.80;;;0.93;;
16393;SDS011;8306;51.128;4.476;2022-09-09T12:41:59;3.37;;;0.70;;
16393;SDS011;8306;51.128;4.476;2022-09-09T12:44:26;6.63;;;0.83;;
16393;SDS011;8306;51.128;4.476;2022-09-09T12:46:56;2.03;;;0.77;;
16393;SDS011;8306;51.128;4.476;2022-09-09T12:49:25;1.83;;;0.60;;
16393;SDS011;8306;51.128;4.476;2022-09-09T12:51:51;3.63;;;0.80;;
16393;SDS011;8306;51.128;4.476;2022-09-09T12:54:17;2.00;;;0.73;;
16393;SDS011;8306;51.128;4.476;2022-09-09T12:56:45;1.87;;;0.80;;
16393;SDS011;8306;51.128;4.476;2022-09-09T12:59:17;1.37;;;0.70;;
16393;SDS011;8306;51.128;4.476;2022-09-09T13:01:36;1.77;;;1.00;;
16393;SDS011;8306;51.128;4.476;2022-09-09T13:04:15;2.70;;;1.00;;
16393;SDS011;8306;51.128;4.476;2022-09-09T13:06:30;2.03;;;0.77;;
16393;SDS011;8306;51.128;4.476;2022-09-09T13:08:57;2.40;;;0.90;;
16393;SDS011;8306;51.128;4.476;2022-09-09T13:11:30;3.77;;;1.10;;
16393;SDS011;8306;51.128;4.476;2022-09-09T13:13:52;2.00;;;0.90;;
16393;SDS011;8306;51.128;4.476;2022-09-09T13:16:39;1.93;;;0.90;;
16393;SDS011;8306;51.128;4.476;2022-09-09T13:18:56;1.63;;;0.90;;
16393;SDS011;8306;51.128;4.476;2022-09-09T13:21:35;2.33;;;0.90;;
16393;SDS011;8306;51.128;4.476;2022-09-09T13:24:01;1.07;;;0.63;;
16393;SDS011;8306;51.128;4.476;2022-09-09T13:26:30;1.70;;;0.70;;
16393;SDS011;8306;51.128;4.476;2022-09-09T13:29:07;2.03;;;0.90;;
16393;SDS011;8306;51.128;4.476;2022-09-09T13:31:24;2.03;;;0.90;;
16393;SDS011;8306;51.128;4.476;2022-09-09T13:33:49;2.77;;;0.80;;
16393;SDS011;8306;51.128;4.476;2022-09-09T13:36:16;1.37;;;0.90;;
16393;SDS011;8306;51.128;4.476;2022-09-09T13:41:25;1.90;;;0.90;;
16393;SDS011;8306;51.128;4.476;2022-09-09T13:43:47;2.63;;;1.00;;
16393;SDS011;8306;51.128;4.476;2022-09-09T13:47:17;2.67;;;1.00;;
16393;SDS011;8306;51.128;4.476;2022-09-09T13:48:58;1.50;;;0.70;;
16393;SDS011;8306;51.128;4.476;2022-09-09T13:51:33;1.53;;;0.90;;
16393;SDS011;8306;51.128;4.476;2022-09-09T13:53:59;1.87;;;0.90;;
16393;SDS011;8306;51.128;4.476;2022-09-09T13:56:26;1.50;;;0.80;;
16393;SDS011;8306;51.128;4.476;2022-09-09T13:58:52;1.47;;;0.90;;
16393;SDS011;8306;51.128;4.476;2022-09-09T14:01:19;2.90;;;1.00;;
16393;SDS011;8306;51.128;4.476;2022-09-09T14:03:45;1.70;;;0.77;;
16393;SDS011;8306;51.128;4.476;2022-09-09T14:06:12;2.47;;;0.90;;
16393;SDS011;8306;51.128;4.476;2022-09-09T14:08:38;1.43;;;0.80;;
16393;SDS011;8306;51.128;4.476;2022-09-09T14:11:05;2.17;;;0.70;;
16393;SDS011;8306;51.128;4.476;2022-09-09T14:13:32;1.30;;;0.70;;
16393;SDS011;8306;51.128;4.476;2022-09-09T14:15:58;1.13;;;0.80;;
16393;SDS011;8306;51.128;4.476;2022-09-09T14:18:24;2.33;;;0.80;;
16393;SDS011;8306;51.128;4.476;2022-09-09T14:20:51;1.80;;;0.83;;
16393;SDS011;8306;51.128;4.476;2022-09-09T14:23:17;1.60;;;0.80;;
16393;SDS011;8306;51.128;4.476;2022-09-09T14:25:43;1.50;;;0.70;;
16393;SDS011;8306;51.128;4.476;2022-09-09T14:28:11;1.37;;;0.90;;
16393;SDS011;8306;51.128;4.476;2022-09-09T14:30:39;2.67;;;1.00;;
16393;SDS011;8306;51.128;4.476;2022-09-09T14:33:03;1.40;;;0.70;;
16393;SDS011;8306;51.128;4.476;2022-09-09T14:35:29;1.43;;;0.80;;
16393;SDS011;8306;51.128;4.476;2022-09-09T14:37:56;2.17;;;0.83;;
16393;SDS011;8306;51.128;4.476;2022-09-09T14:40:22;1.73;;;0.80;;
16393;SDS011;8306;51.128;4.476;2022-09-09T14:42:49;1.50;;;0.87;;
16393;SDS011;8306;51.128;4.476;2022-09-09T14:45:15;2.70;;;0.90;;
16393;SDS011;8306;51.128;4.476;2022-09-09T14:47:42;3.30;;;1.03;;
16393;SDS011;8306;51.128;4.476;2022-09-09T14:50:08;1.47;;;0.90;;
16393;SDS011;8306;51.128;4.476;2022-09-09T14:52:35;0.83;;;0.50;;
16393;SDS011;8306;51.128;4.476;2022-09-09T14:55:01;2.17;;;0.90;;
16393;SDS011;8306;51.128;4.476;2022-09-09T14:57:28;1.30;;;0.67;;
16393;SDS011;8306;51.128;4.476;2022-09-09T14:59:54;2.07;;;0.90;;
16393;SDS011;8306;51.128;4.476;2022-09-09T15:02:21;2.63;;;0.73;;
16393;SDS011;8306;51.128;4.476;2022-09-09T15:04:50;1.17;;;0.70;;
16393;SDS011;8306;51.128;4.476;2022-09-09T15:07:16;0.80;;;0.50;;
16393;SDS011;8306;51.128;4.476;2022-09-09T15:09:43;0.80;;;0.53;;
16393;SDS011;8306;51.128;4.476;2022-09-09T15:12:09;0.77;;;0.40;;
16393;SDS011;8306;51.128;4.476;2022-09-09T15:14:36;1.13;;;0.60;;
16393;SDS011;8306;51.128;4.476;2022-09-09T15:17:02;1.43;;;0.67;;
16393;SDS011;8306;51.128;4.476;2022-09-09T15:19:29;1.37;;;0.80;;
16393;SDS011;8306;51.128;4.476;2022-09-09T15:21:55;0.63;;;0.47;;
16393;SDS011;8306;51.128;4.476;2022-09-09T15:24:22;2.00;;;0.60;;
16393;SDS011;8306;51.128;4.476;2022-09-09T15:26:49;1.40;;;0.50;;
16393;SDS011;8306;51.128;4.476;2022-09-09T15:29:15;1.73;;;0.70;;
16393;SDS011;8306;51.128;4.476;2022-09-09T15:31:42;2.83;;;0.60;;
16393;SDS011;8306;51.128;4.476;2022-09-09T15:34:08;2.43;;;0.83;;
16393;SDS011;8306;51.128;4.476;2022-09-09T15:36:35;2.20;;;0.80;;
16393;SDS011;8306;51.128;4.476;2022-09-09T15:39:02;2.10;;;0.70;;
16393;SDS011;8306;51.128;4.476;2022-09-09T15:41:28;1.80;;;0.90;;
16393;SDS011;8306;51.128;4.476;2022-09-09T15:43:55;1.13;;;0.60;;
16393;SDS011;8306;51.128;4.476;2022-09-09T15:48:47;1.90;;;0.70;;
16393;SDS011;8306;51.128;4.476;2022-09-09T15:51:13;0.60;;;0.57;;
16393;SDS011;8306;51.128;4.476;2022-09-09T15:53:40;0.93;;;0.60;;
16393;SDS011;8306;51.128;4.476;2022-09-09T15:56:06;0.77;;;0.43;;
16393;SDS011;8306;51.128;4.476;2022-09-09T15:58:33;0.93;;;0.50;;
16393;SDS011;8306;51.128;4.476;2022-09-09T16:01:06;0.97;;;0.40;;
16393;SDS011;8306;51.128;4.476;2022-09-09T16:03:35;1.07;;;0.60;;
16393;SDS011;8306;51.128;4.476;2022-09-09T16:06:01;0.93;;;0.53;;
16393;SDS011;8306;51.128;4.476;2022-09-09T16:08:38;1.10;;;0.60;;
16393;SDS011;8306;51.128;4.476;2022-09-09T16:11:06;1.17;;;0.70;;
16393;SDS011;8306;51.128;4.476;2022-09-09T16:13:38;3.43;;;0.83;;
16393;SDS011;8306;51.128;4.476;2022-09-09T16:16:05;1.40;;;0.80;;
16393;SDS011;8306;51.128;4.476;2022-09-09T16:18:35;2.80;;;0.90;;
16393;SDS011;8306;51.128;4.476;2022-09-09T16:21:07;0.83;;;0.70;;
16393;SDS011;8306;51.128;4.476;2022-09-09T16:23:33;1.30;;;0.70;;
16393;SDS011;8306;51.128;4.476;2022-09-09T16:25:59;2.17;;;1.20;;
16393;SDS011;8306;51.128;4.476;2022-09-09T16:28:26;2.73;;;1.10;;
16393;SDS011;8306;51.128;4.476;2022-09-09T16:30:52;4.27;;;1.50;;
16393;SDS011;8306;51.128;4.476;2022-09-09T16:33:19;1.90;;;1.00;;
16393;SDS011;8306;51.128;4.476;2022-09-09T16:35:45;1.60;;;1.10;;
16393;SDS011;8306;51.128;4.476;2022-09-09T16:38:12;2.20;;;1.03;;
16393;SDS011;8306;51.128;4.476;2022-09-09T16:40:38;2.47;;;1.23;;
16393;SDS011;8306;51.128;4.476;2022-09-09T16:43:05;1.47;;;1.00;;
16393;SDS011;8306;51.128;4.476;2022-09-09T16:45:31;1.90;;;1.17;;
16393;SDS011;8306;51.128;4.476;2022-09-09T16:47:58;2.10;;;1.30;;
16393;SDS011;8306;51.128;4.476;2022-09-09T16:50:24;2.97;;;1.30;;